Two Dot, Montana
Current Conditions -  °F | °C
As of 8:54 PM on Friday 19 Dec 2014 (Local Time) from KLWT Reporting Station
Overcast Overcast  
Wind Chill: 33°   Ceiling: 6500
Heat Index: 41°   Visibility: 10mi
Dew Point: 29°   Wind: 15mph
Humidity: 62%   Direction: 240°WSW
Pressure: 29.83"   Gusts: NA
Location:  46.4657°N, 110.033°W
Report Text: KLWT 200354Z AUTO 24013KT 10SM BKN065 BKN075 OVC100 05/M02 A2983 RMK AO2 SLP117 T00501017
Loading
Personal Weather Stations






























Interactive Weather Map New forecast layout! Learn more

10-Day Weather Forecast

Advertisements
Track Severe Weather on mobile